sensor_id;sensor_type;location;lat;lon;timestamp;pressure;altitude;pressure_sealevel;temperature;humidity
25420;BME280;13354;48.174;11.566;2023-04-29T00:00:44;95413.44;;;11.61;100.00
25420;BME280;13354;48.174;11.566;2023-04-29T00:03:09;95411.81;;;11.54;100.00
25420;BME280;13354;48.174;11.566;2023-04-29T00:05:35;95409.97;;;11.54;100.00
25420;BME280;13354;48.174;11.566;2023-04-29T00:08:00;95411.81;;;11.54;100.00
25420;BME280;13354;48.174;11.566;2023-04-29T00:10:26;95409.97;;;11.48;100.00
25420;BME280;13354;48.174;11.566;2023-04-29T00:12:51;95414.47;;;11.54;100.00
25420;BME280;13354;48.174;11.566;2023-04-29T00:15:16;95412.63;;;11.41;100.00
25420;BME280;13354;48.174;11.566;2023-04-29T00:17:41;95408.16;;;11.35;100.00
25420;BME280;13354;48.174;11.566;2023-04-29T00:20:07;95406.50;;;11.41;100.00
25420;BME280;13354;48.174;11.566;2023-04-29T00:22:32;95408.75;;;11.44;100.00
25420;BME280;13354;48.174;11.566;2023-04-29T00:24:58;95407.94;;;11.36;100.00
25420;BME280;13354;48.174;11.566;2023-04-29T00:27:23;95395.91;;;11.41;100.00
25420;BME280;13354;48.174;11.566;2023-04-29T00:29:48;95394.28;;;11.33;100.00
25420;BME280;13354;48.174;11.566;2023-04-29T00:32:14;95392.84;;;11.30;100.00
25420;BME280;13354;48.174;11.566;2023-04-29T00:34:39;95402.22;;;11.33;100.00
25420;BME280;13354;48.174;11.566;2023-04-29T00:37:04;95400.41;;;11.27;100.00
25420;BME280;13354;48.174;11.566;2023-04-29T00:39:29;95390.41;;;11.29;100.00
25420;BME280;13354;48.174;11.566;2023-04-29T00:41:54;95393.03;;;11.29;100.00
25420;BME280;13354;48.174;11.566;2023-04-29T00:44:20;95410.38;;;11.31;100.00
25420;BME280;13354;48.174;11.566;2023-04-29T00:46:45;95396.91;;;11.33;100.00
25420;BME280;13354;48.174;11.566;2023-04-29T00:49:10;95390.81;;;11.46;100.00
25420;BME280;13354;48.174;11.566;2023-04-29T00:51:37;95397.34;;;11.50;100.00
25420;BME280;13354;48.174;11.566;2023-04-29T00:54:04;95389.56;;;11.61;100.00
25420;BME280;13354;48.174;11.566;2023-04-29T00:56:31;95388.16;;;11.59;100.00
25420;BME280;13354;48.174;11.566;2023-04-29T00:58:57;95382.44;;;11.69;100.00
25420;BME280;13354;48.174;11.566;2023-04-29T01:01:23;95388.97;;;11.59;100.00
25420;BME280;13354;48.174;11.566;2023-04-29T01:03:49;95386.94;;;11.68;100.00
25420;BME280;13354;48.174;11.566;2023-04-29T01:09:03;95390.41;;;11.69;100.00
25420;BME280;13354;48.174;11.566;2023-04-29T01:11:34;95394.66;;;11.70;100.00
25420;BME280;13354;48.174;11.566;2023-04-29T01:14:03;95391.59;;;11.66;100.00
25420;BME280;13354;48.174;11.566;2023-04-29T01:16:32;95387.53;;;11.70;100.00
25420;BME280;13354;48.174;11.566;2023-04-29T01:18:59;95379.38;;;11.72;100.00
25420;BME280;13354;48.174;11.566;2023-04-29T01:21:26;95386.09;;;11.74;100.00
25420;BME280;13354;48.174;11.566;2023-04-29T01:23:52;95389.97;;;11.78;100.00
25420;BME280;13354;48.174;11.566;2023-04-29T01:26:20;95383.88;;;11.71;100.00
25420;BME280;13354;48.174;11.566;2023-04-29T01:28:59;95389.78;;;11.73;100.00
25420;BME280;13354;48.174;11.566;2023-04-29T01:31:30;95386.13;;;11.68;100.00
25420;BME280;13354;48.174;11.566;2023-04-29T01:36:56;95388.56;;;11.69;100.00
25420;BME280;13354;48.174;11.566;2023-04-29T01:41:59;95394.47;;;11.71;100.00
25420;BME280;13354;48.174;11.566;2023-04-29T01:44:27;95388.94;;;11.73;100.00
25420;BME280;13354;48.174;11.566;2023-04-29T01:46:53;95389.56;;;11.75;100.00
25420;BME280;13354;48.174;11.566;2023-04-29T01:49:25;95378.34;;;11.73;100.00
25420;BME280;13354;48.174;11.566;2023-04-29T01:51:52;95388.16;;;11.72;100.00
25420;BME280;13354;48.174;11.566;2023-04-29T01:54:17;95383.25;;;11.69;100.00
25420;BME280;13354;48.174;11.566;2023-04-29T01:56:42;95380.38;;;11.77;100.00
25420;BME280;13354;48.174;11.566;2023-04-29T01:59:08;95378.97;;;11.75;100.00
25420;BME280;13354;48.174;11.566;2023-04-29T02:01:33;95386.94;;;11.68;100.00
25420;BME280;13354;48.174;11.566;2023-04-29T02:03:58;95387.31;;;11.85;100.00
25420;BME280;13354;48.174;11.566;2023-04-29T02:06:24;95383.44;;;11.81;100.00
25420;BME280;13354;48.174;11.566;2023-04-29T02:08:50;95379.78;;;11.75;100.00
25420;BME280;13354;48.174;11.566;2023-04-29T02:11:15;95381.63;;;11.68;100.00
25420;BME280;13354;48.174;11.566;2023-04-29T02:13:41;95378.75;;;11.70;100.00
25420;BME280;13354;48.174;11.566;2023-04-29T02:16:06;95385.72;;;11.64;100.00
25420;BME280;13354;48.174;11.566;2023-04-29T02:18:32;95384.28;;;11.68;100.00
25420;BME280;13354;48.174;11.566;2023-04-29T02:21:00;95385.09;;;11.75;100.00
25420;BME280;13354;48.174;11.566;2023-04-29T02:23:28;95383.03;;;11.71;100.00
25420;BME280;13354;48.174;11.566;2023-04-29T02:25:54;95386.31;;;11.86;100.00
25420;BME280;13354;48.174;11.566;2023-04-29T02:28:19;95385.28;;;11.87;100.00
25420;BME280;13354;48.174;11.566;2023-04-29T02:30:44;95379.56;;;11.77;100.00
25420;BME280;13354;48.174;11.566;2023-04-29T02:33:10;95386.50;;;11.78;100.00
25420;BME280;13354;48.174;11.566;2023-04-29T02:35:35;95387.53;;;11.97;100.00
25420;BME280;13354;48.174;11.566;2023-04-29T02:38:01;95383.63;;;11.93;100.00
25420;BME280;13354;48.174;11.566;2023-04-29T02:40:26;95381.38;;;11.96;100.00
25420;BME280;13354;48.174;11.566;2023-04-29T02:42:51;95387.09;;;12.00;100.00
25420;BME280;13354;48.174;11.566;2023-04-29T02:45:16;95383.03;;;11.97;100.00
25420;BME280;13354;48.174;11.566;2023-04-29T02:47:42;95387.91;;;12.07;100.00
25420;BME280;13354;48.174;11.566;2023-04-29T02:50:07;95385.88;;;11.89;100.00
25420;BME280;13354;48.174;11.566;2023-04-29T02:52:33;95384.66;;;11.98;100.00
25420;BME280;13354;48.174;11.566;2023-04-29T02:54:58;95393.44;;;11.92;100.00
25420;BME280;13354;48.174;11.566;2023-04-29T02:57:23;95395.06;;;12.00;100.00
25420;BME280;13354;48.174;11.566;2023-04-29T02:59:48;95394.47;;;11.91;100.00
25420;BME280;13354;48.174;11.566;2023-04-29T03:02:13;95395.44;;;12.03;100.00
25420;BME280;13354;48.174;11.566;2023-04-29T03:04:39;95394.44;;;12.04;100.00
25420;BME280;13354;48.174;11.566;2023-04-29T03:07:04;95395.84;;;12.07;100.00
25420;BME280;13354;48.174;11.566;2023-04-29T03:09:29;95397.88;;;12.18;100.00
25420;BME280;13354;48.174;11.566;2023-04-29T03:11:54;95398.31;;;12.08;100.00
25420;BME280;13354;48.174;11.566;2023-04-29T03:14:20;95388.09;;;12.19;100.00
25420;BME280;13354;48.174;11.566;2023-04-29T03:16:45;95396.06;;;12.12;100.00
25420;BME280;13354;48.174;11.566;2023-04-29T03:19:10;95391.31;;;12.27;100.00
25420;BME280;13354;48.174;11.566;2023-04-29T03:21:36;95390.53;;;12.20;100.00
25420;BME280;13354;48.174;11.566;2023-04-29T03:24:01;95389.31;;;12.16;100.00
25420;BME280;13354;48.174;11.566;2023-04-29T03:26:26;95398.31;;;12.08;100.00
25420;BME280;13354;48.174;11.566;2023-04-29T03:28:51;95392.00;;;12.03;100.00
25420;BME280;13354;48.174;11.566;2023-04-29T03:31:17;95396.88;;;12.06;100.00
25420;BME280;13354;48.174;11.566;2023-04-29T03:33:44;95391.16;;;12.09;100.00
25420;BME280;13354;48.174;11.566;2023-04-29T03:36:10;95390.53;;;12.07;100.00
25420;BME280;13354;48.174;11.566;2023-04-29T03:38:35;95398.72;;;12.12;100.00
25420;BME280;13354;48.174;11.566;2023-04-29T03:41:00;95395.06;;;12.00;100.00
25420;BME280;13354;48.174;11.566;2023-04-29T03:43:26;95395.25;;;12.05;100.00
25420;BME280;13354;48.174;11.566;2023-04-29T03:45:51;95390.16;;;12.03;100.00
25420;BME280;13354;48.174;11.566;2023-04-29T03:48:16;95391.16;;;12.16;100.00
25420;BME280;13354;48.174;11.566;2023-04-29T03:50:42;95400.97;;;12.02;100.00
25420;BME280;13354;48.174;11.566;2023-04-29T03:53:07;95398.72;;;12.05;100.00
25420;BME280;13354;48.174;11.566;2023-04-29T03:55:32;95402.81;;;12.08;100.00
25420;BME280;13354;48.174;11.566;2023-04-29T03:57:58;95398.09;;;12.17;100.00
25420;BME280;13354;48.174;11.566;2023-04-29T04:00:23;95394.00;;;12.07;100.00
25420;BME280;13354;48.174;11.566;2023-04-29T04:02:50;95399.75;;;11.98;100.00
25420;BME280;13354;48.174;11.566;2023-04-29T04:05:15;95401.19;;;12.00;100.00
25420;BME280;13354;48.174;11.566;2023-04-29T04:07:43;95402.59;;;12.03;100.00
25420;BME280;13354;48.174;11.566;2023-04-29T04:10:08;95406.50;;;12.00;100.00
25420;BME280;13354;48.174;11.566;2023-04-29T04:12:34;95402.44;;;11.91;100.00
25420;BME280;13354;48.174;11.566;2023-04-29T04:14:59;95404.91;;;11.86;100.00
25420;BME280;13354;48.174;11.566;2023-04-29T04:17:24;95406.91;;;11.91;100.00
25420;BME280;13354;48.174;11.566;2023-04-29T04:19:49;95405.09;;;11.91;100.00
25420;BME280;13354;48.174;11.566;2023-04-29T04:22:15;95403.44;;;11.77;100.00
25420;BME280;13354;48.174;11.566;2023-04-29T04:24:41;95411.19;;;11.85;100.00
25420;BME280;13354;48.174;11.566;2023-04-29T04:27:06;95409.16;;;11.87;100.00
25420;BME280;13354;48.174;11.566;2023-04-29T04:29:31;95416.31;;;11.93;100.00
25420;BME280;13354;48.174;11.566;2023-04-29T04:31:57;95420.78;;;11.99;100.00
25420;BME280;13354;48.174;11.566;2023-04-29T04:34:22;95420.81;;;11.86;100.00
25420;BME280;13354;48.174;11.566;2023-04-29T04:36:47;95418.53;;;12.03;100.00
25420;BME280;13354;48.174;11.566;2023-04-29T04:39:12;95417.31;;;11.92;100.00
25420;BME280;13354;48.174;11.566;2023-04-29T04:41:38;95423.66;;;11.98;100.00
25420;BME280;13354;48.174;11.566;2023-04-29T04:44:03;95417.69;;;12.16;100.00
25420;BME280;13354;48.174;11.566;2023-04-29T04:46:28;95425.06;;;12.00;100.00
25420;BME280;13354;48.174;11.566;2023-04-29T04:48:53;95423.81;;;12.16;100.00
25420;BME280;13354;48.174;11.566;2023-04-29T04:51:19;95425.66;;;12.16;100.00
25420;BME280;13354;48.174;11.566;2023-04-29T04:53:45;95421.75;;;12.18;100.00
25420;BME280;13354;48.174;11.566;2023-04-29T04:56:10;95426.66;;;12.21;100.00
25420;BME280;13354;48.174;11.566;2023-04-29T04:58:35;95425.41;;;12.30;100.00
25420;BME280;13354;48.174;11.566;2023-04-29T05:01:00;95429.28;;;12.28;100.00
25420;BME280;13354;48.174;11.566;2023-04-29T05:03:26;95426.78;;;12.46;100.00
25420;BME280;13354;48.174;11.566;2023-04-29T05:08:20;95428.81;;;12.44;100.00
25420;BME280;13354;48.174;11.566;2023-04-29T05:10:45;95429.47;;;12.40;100.00
25420;BME280;13354;48.174;11.566;2023-04-29T05:13:10;95434.91;;;12.51;100.00
25420;BME280;13354;48.174;11.566;2023-04-29T05:15:35;95439.41;;;12.51;100.00
25420;BME280;13354;48.174;11.566;2023-04-29T05:18:01;95433.59;;;12.74;100.00
25420;BME280;13354;48.174;11.566;2023-04-29T05:20:26;95437.09;;;12.74;100.00
25420;BME280;13354;48.174;11.566;2023-04-29T05:22:51;95438.06;;;12.87;100.00
25420;BME280;13354;48.174;11.566;2023-04-29T05:25:16;95438.69;;;12.82;100.00
25420;BME280;13354;48.174;11.566;2023-04-29T05:27:42;95443.16;;;12.88;100.00
25420;BME280;13354;48.174;11.566;2023-04-29T05:30:07;95446.41;;;12.97;100.00
25420;BME280;13354;48.174;11.566;2023-04-29T05:32:32;95448.28;;;12.83;100.00
25420;BME280;13354;48.174;11.566;2023-04-29T05:34:58;95462.38;;;12.84;100.00
25420;BME280;13354;48.174;11.566;2023-04-29T05:37:23;95456.50;;;12.81;100.00
25420;BME280;13354;48.174;11.566;2023-04-29T05:39:48;95455.59;;;12.94;100.00
25420;BME280;13354;48.174;11.566;2023-04-29T05:42:13;95452.06;;;13.07;100.00
25420;BME280;13354;48.174;11.566;2023-04-29T05:44:39;95454.72;;;13.07;100.00
25420;BME280;13354;48.174;11.566;2023-04-29T05:47:04;95462.91;;;13.05;100.00
25420;BME280;13354;48.174;11.566;2023-04-29T05:49:29;95472.44;;;13.20;100.00
25420;BME280;13354;48.174;11.566;2023-04-29T05:51:54;95473.47;;;13.19;100.00
25420;BME280;13354;48.174;11.566;2023-04-29T05:54:20;95472.66;;;13.18;100.00
25420;BME280;13354;48.174;11.566;2023-04-29T05:56:45;95480.41;;;13.20;100.00
25420;BME280;13354;48.174;11.566;2023-04-29T05:59:10;95477.09;;;13.31;100.00
25420;BME280;13354;48.174;11.566;2023-04-29T06:01:36;95481.44;;;13.19;100.00
25420;BME280;13354;48.174;11.566;2023-04-29T06:04:01;95484.50;;;13.22;100.00
25420;BME280;13354;48.174;11.566;2023-04-29T06:06:26;95481.34;;;13.39;100.00
25420;BME280;13354;48.174;11.566;2023-04-29T06:08:52;95475.44;;;13.37;100.00
25420;BME280;13354;48.174;11.566;2023-04-29T06:11:17;95484.56;;;13.47;100.00
25420;BME280;13354;48.174;11.566;2023-04-29T06:13:43;95488.09;;;13.41;100.00
25420;BME280;13354;48.174;11.566;2023-04-29T06:16:08;95491.13;;;13.45;100.00
25420;BME280;13354;48.174;11.566;2023-04-29T06:18:34;95487.41;;;13.52;100.00
25420;BME280;13354;48.174;11.566;2023-04-29T06:20:59;95490.53;;;13.43;100.00
25420;BME280;13354;48.174;11.566;2023-04-29T06:23:24;95496.66;;;13.43;100.00
25420;BME280;13354;48.174;11.566;2023-04-29T06:25:50;95495.59;;;13.51;100.00
25420;BME280;13354;48.174;11.566;2023-04-29T06:28:15;95499.66;;;13.53;100.00
25420;BME280;13354;48.174;11.566;2023-04-29T06:30:41;95499.78;;;13.65;100.00
25420;BME280;13354;48.174;11.566;2023-04-29T06:33:06;95512.06;;;13.66;100.00
25420;BME280;13354;48.174;11.566;2023-04-29T06:35:32;95508.47;;;13.86;100.00
25420;BME280;13354;48.174;11.566;2023-04-29T06:37:57;95511.56;;;14.08;100.00
25420;BME280;13354;48.174;11.566;2023-04-29T06:40:22;95512.09;;;14.16;100.00
25420;BME280;13354;48.174;11.566;2023-04-29T06:42:48;95519.88;;;14.18;99.54
25420;BME280;13354;48.174;11.566;2023-04-29T06:45:13;95509.81;;;14.20;99.36
25420;BME280;13354;48.174;11.566;2023-04-29T06:47:38;95513.53;;;14.62;98.39
25420;BME280;13354;48.174;11.566;2023-04-29T06:50:04;95509.13;;;15.23;93.81
25420;BME280;13354;48.174;11.566;2023-04-29T06:52:30;95510.44;;;15.62;89.81
25420;BME280;13354;48.174;11.566;2023-04-29T06:54:56;95511.66;;;16.20;85.51
25420;BME280;13354;48.174;11.566;2023-04-29T06:57:21;95521.81;;;15.88;84.35
25420;BME280;13354;48.174;11.566;2023-04-29T06:59:46;95506.78;;;16.29;82.74
25420;BME280;13354;48.174;11.566;2023-04-29T07:02:12;95504.06;;;16.99;80.65
25420;BME280;13354;48.174;11.566;2023-04-29T07:04:37;95519.75;;;16.96;79.50
25420;BME280;13354;48.174;11.566;2023-04-29T07:07:03;95511.50;;;17.37;77.80
25420;BME280;13354;48.174;11.566;2023-04-29T07:09:28;95511.41;;;17.90;76.10
25420;BME280;13354;48.174;11.566;2023-04-29T07:11:53;95514.09;;;17.61;76.21
25420;BME280;13354;48.174;11.566;2023-04-29T07:14:19;95511.25;;;17.79;75.55
25420;BME280;13354;48.174;11.566;2023-04-29T07:16:46;95506.38;;;18.44;71.43
25420;BME280;13354;48.174;11.566;2023-04-29T07:19:11;95508.03;;;18.83;70.44
25420;BME280;13354;48.174;11.566;2023-04-29T07:21:37;95519.94;;;18.37;70.94
25420;BME280;13354;48.174;11.566;2023-04-29T07:24:02;95508.34;;;18.31;70.55
25420;BME280;13354;48.174;11.566;2023-04-29T07:26:28;95514.19;;;18.28;71.38
25420;BME280;13354;48.174;11.566;2023-04-29T07:28:54;95515.91;;;18.01;71.95
25420;BME280;13354;48.174;11.566;2023-04-29T07:31:19;95510.09;;;17.92;73.27
25420;BME280;13354;48.174;11.566;2023-04-29T07:33:45;95525.41;;;17.51;74.37
25420;BME280;13354;48.174;11.566;2023-04-29T07:36:13;95521.78;;;17.57;74.66
25420;BME280;13354;48.174;11.566;2023-04-29T07:38:38;95525.09;;;17.76;73.81
25420;BME280;13354;48.174;11.566;2023-04-29T07:41:04;95521.97;;;17.68;73.66
25420;BME280;13354;48.174;11.566;2023-04-29T07:43:29;95530.56;;;17.41;73.78
25420;BME280;13354;48.174;11.566;2023-04-29T07:45:55;95524.78;;;16.69;75.13
25420;BME280;13354;48.174;11.566;2023-04-29T07:48:20;95529.75;;;17.00;74.79
25420;BME280;13354;48.174;11.566;2023-04-29T07:50:46;95514.31;;;17.88;72.69
25420;BME280;13354;48.174;11.566;2023-04-29T07:53:11;95520.25;;;17.90;70.00
25420;BME280;13354;48.174;11.566;2023-04-29T07:55:37;95512.38;;;18.51;69.82
25420;BME280;13354;48.174;11.566;2023-04-29T07:58:02;95518.81;;;18.33;69.74
25420;BME280;13354;48.174;11.566;2023-04-29T08:00:27;95518.91;;;18.38;67.81
25420;BME280;13354;48.174;11.566;2023-04-29T08:02:53;95521.00;;;18.02;68.48
25420;BME280;13354;48.174;11.566;2023-04-29T08:05:18;95522.94;;;17.61;69.61
25420;BME280;13354;48.174;11.566;2023-04-29T08:07:45;95521.41;;;17.94;69.66
25420;BME280;13354;48.174;11.566;2023-04-29T08:10:10;95533.69;;;17.78;69.58
25420;BME280;13354;48.174;11.566;2023-04-29T08:12:36;95531.47;;;17.87;71.38
25420;BME280;13354;48.174;11.566;2023-04-29T08:15:01;95527.56;;;17.66;71.00
25420;BME280;13354;48.174;11.566;2023-04-29T08:17:26;95529.34;;;17.60;70.79
25420;BME280;13354;48.174;11.566;2023-04-29T08:19:51;95528.47;;;17.43;70.16
25420;BME280;13354;48.174;11.566;2023-04-29T08:22:16;95522.22;;;17.95;71.29
25420;BME280;13354;48.174;11.566;2023-04-29T08:24:42;95511.50;;;18.45;72.03
25420;BME280;13354;48.174;11.566;2023-04-29T08:27:07;95513.25;;;18.73;66.35
25420;BME280;13354;48.174;11.566;2023-04-29T08:29:32;95517.00;;;19.11;65.29
25420;BME280;13354;48.174;11.566;2023-04-29T08:31:58;95511.00;;;19.04;64.21
25420;BME280;13354;48.174;11.566;2023-04-29T08:34:24;95510.75;;;19.27;64.20
25420;BME280;13354;48.174;11.566;2023-04-29T08:36:49;95510.78;;;19.33;63.09
25420;BME280;13354;48.174;11.566;2023-04-29T08:39:14;95519.09;;;19.31;62.05
25420;BME280;13354;48.174;11.566;2023-04-29T08:41:39;95514.19;;;19.67;61.50
25420;BME280;13354;48.174;11.566;2023-04-29T08:44:05;95509.13;;;20.02;61.44
25420;BME280;13354;48.174;11.566;2023-04-29T08:46:30;95514.97;;;19.94;59.64
25420;BME280;13354;48.174;11.566;2023-04-29T08:48:56;95512.78;;;19.64;59.00
25420;BME280;13354;48.174;11.566;2023-04-29T08:51:22;95510.13;;;19.42;59.84
25420;BME280;13354;48.174;11.566;2023-04-29T08:53:48;95514.56;;;19.31;60.72
25420;BME280;13354;48.174;11.566;2023-04-29T08:56:16;95515.22;;;19.22;60.41
25420;BME280;13354;48.174;11.566;2023-04-29T08:58:45;95517.28;;;18.71;61.95
25420;BME280;13354;48.174;11.566;2023-04-29T09:01:11;95515.88;;;18.51;62.97
25420;BME280;13354;48.174;11.566;2023-04-29T09:03:49;95513.38;;;18.45;63.76
25420;BME280;13354;48.174;11.566;2023-04-29T09:06:16;95511.59;;;18.17;63.66
25420;BME280;13354;48.174;11.566;2023-04-29T09:08:41;95518.66;;;18.06;65.07
25420;BME280;13354;48.174;11.566;2023-04-29T09:11:07;95514.91;;;18.07;65.19
25420;BME280;13354;48.174;11.566;2023-04-29T09:13:34;95519.03;;;18.15;64.83
25420;BME280;13354;48.174;11.566;2023-04-29T09:15:59;95515.66;;;18.19;63.83
25420;BME280;13354;48.174;11.566;2023-04-29T09:18:44;95517.69;;;18.12;63.84
25420;BME280;13354;48.174;11.566;2023-04-29T09:23:44;95516.00;;;17.77;62.16
25420;BME280;13354;48.174;11.566;2023-04-29T09:26:10;95516.28;;;17.35;62.56
25420;BME280;13354;48.174;11.566;2023-04-29T09:28:35;95512.84;;;17.52;63.54
25420;BME280;13354;48.174;11.566;2023-04-29T09:31:01;95524.19;;;17.42;62.82
25420;BME280;13354;48.174;11.566;2023-04-29T09:33:30;95517.28;;;17.46;64.18
25420;BME280;13354;48.174;11.566;2023-04-29T09:35:55;95513.38;;;17.66;64.82
25420;BME280;13354;48.174;11.566;2023-04-29T09:38:20;95502.66;;;18.28;64.97
25420;BME280;13354;48.174;11.566;2023-04-29T09:40:46;95507.59;;;18.36;63.57
25420;BME280;13354;48.174;11.566;2023-04-29T09:43:12;95505.63;;;18.65;62.14
25420;BME280;13354;48.174;11.566;2023-04-29T09:45:42;95494.34;;;19.24;60.57
25420;BME280;13354;48.174;11.566;2023-04-29T09:48:08;95498.06;;;19.45;56.11
25420;BME280;13354;48.174;11.566;2023-04-29T09:50:34;95510.53;;;19.56;56.49
25420;BME280;13354;48.174;11.566;2023-04-29T09:53:02;95509.28;;;19.91;56.37
25420;BME280;13354;48.174;11.566;2023-04-29T09:55:27;95499.09;;;20.25;54.84
25420;BME280;13354;48.174;11.566;2023-04-29T09:57:53;95510.09;;;20.18;54.91
25420;BME280;13354;48.174;11.566;2023-04-29T10:00:18;95498.75;;;20.48;54.59
25420;BME280;13354;48.174;11.566;2023-04-29T10:02:47;95503.94;;;20.55;55.10
25420;BME280;13354;48.174;11.566;2023-04-29T10:05:13;95505.31;;;20.25;55.14
25420;BME280;13354;48.174;11.566;2023-04-29T10:07:38;95502.53;;;19.88;59.10
25420;BME280;13354;48.174;11.566;2023-04-29T10:10:03;95516.22;;;19.60;59.59
25420;BME280;13354;48.174;11.566;2023-04-29T10:12:30;95511.75;;;19.21;61.79
25420;BME280;13354;48.174;11.566;2023-04-29T10:17:48;95517.09;;;19.21;62.58
25420;BME280;13354;48.174;11.566;2023-04-29T10:20:13;95512.94;;;19.30;62.74
25420;BME280;13354;48.174;11.566;2023-04-29T10:25:04;95511.31;;;20.06;61.16
25420;BME280;13354;48.174;11.566;2023-04-29T10:27:30;95509.22;;;20.13;59.89
25420;BME280;13354;48.174;11.566;2023-04-29T10:29:57;95502.94;;;20.34;59.03
25420;BME280;13354;48.174;11.566;2023-04-29T10:32:24;95509.00;;;20.19;57.13
25420;BME280;13354;48.174;11.566;2023-04-29T10:34:52;95502.38;;;20.32;57.47
25420;BME280;13354;48.174;11.566;2023-04-29T10:37:19;95495.44;;;20.36;55.71
25420;BME280;13354;48.174;11.566;2023-04-29T10:42:20;95506.19;;;20.73;54.31
25420;BME280;13354;48.174;11.566;2023-04-29T10:47:34;95502.75;;;20.83;53.33
25420;BME280;13354;48.174;11.566;2023-04-29T10:50:03;95501.44;;;20.91;53.85
25420;BME280;13354;48.174;11.566;2023-04-29T10:52:28;95497.94;;;20.90;54.00
25420;BME280;13354;48.174;11.566;2023-04-29T10:55:03;95502.94;;;20.66;54.16
25420;BME280;13354;48.174;11.566;2023-04-29T10:57:28;95495.81;;;20.50;54.30
25420;BME280;13354;48.174;11.566;2023-04-29T10:59:54;95500.75;;;20.31;54.33
25420;BME280;13354;48.174;11.566;2023-04-29T11:02:20;95501.09;;;20.40;54.44
25420;BME280;13354;48.174;11.566;2023-04-29T11:07:30;95494.06;;;20.66;52.82
25420;BME280;13354;48.174;11.566;2023-04-29T11:09:55;95494.22;;;21.02;51.66
25420;BME280;13354;48.174;11.566;2023-04-29T11:12:20;95494.19;;;21.54;50.81
25420;BME280;13354;48.174;11.566;2023-04-29T11:14:49;95488.59;;;21.86;49.35
25420;BME280;13354;48.174;11.566;2023-04-29T11:17:16;95480.03;;;22.25;48.17
25420;BME280;13354;48.174;11.566;2023-04-29T11:19:42;95486.50;;;22.24;48.44
25420;BME280;13354;48.174;11.566;2023-04-29T11:24:49;95485.28;;;21.43;49.59
25420;BME280;13354;48.174;11.566;2023-04-29T11:27:16;95497.53;;;21.19;52.40
25420;BME280;13354;48.174;11.566;2023-04-29T11:29:41;95499.53;;;20.81;50.43
25420;BME280;13354;48.174;11.566;2023-04-29T11:32:07;95502.84;;;20.24;51.54
25420;BME280;13354;48.174;11.566;2023-04-29T11:34:32;95504.72;;;20.18;50.99
25420;BME280;13354;48.174;11.566;2023-04-29T11:36:57;95501.72;;;19.88;50.42
25420;BME280;13354;48.174;11.566;2023-04-29T11:39:22;95497.97;;;20.21;50.62
25420;BME280;13354;48.174;11.566;2023-04-29T11:42:04;95495.59;;;21.04;48.29
25420;BME280;13354;48.174;11.566;2023-04-29T11:44:32;95504.53;;;21.20;47.11
25420;BME280;13354;48.174;11.566;2023-04-29T11:47:03;95499.94;;;21.15;47.28
25420;BME280;13354;48.174;11.566;2023-04-29T11:49:29;95508.34;;;20.77;48.22
25420;BME280;13354;48.174;11.566;2023-04-29T11:51:55;95497.25;;;20.63;48.50
25420;BME280;13354;48.174;11.566;2023-04-29T11:54:20;95502.00;;;20.50;48.47
25420;BME280;13354;48.174;11.566;2023-04-29T11:56:45;95504.72;;;20.18;49.20
25420;BME280;13354;48.174;11.566;2023-04-29T11:59:11;95507.91;;;19.88;49.79
25420;BME280;13354;48.174;11.566;2023-04-29T12:01:36;95504.19;;;20.21;48.76
25420;BME280;13354;48.174;11.566;2023-04-29T12:04:01;95511.00;;;20.66;48.03
25420;BME280;13354;48.174;11.566;2023-04-29T12:06:29;95506.44;;;20.72;46.92
25420;BME280;13354;48.174;11.566;2023-04-29T12:08:57;95509.09;;;20.30;47.71
25420;BME280;13354;48.174;11.566;2023-04-29T12:11:22;95511.72;;;20.52;49.19
25420;BME280;13354;48.174;11.566;2023-04-29T12:13:49;95506.94;;;20.32;47.25
25420;BME280;13354;48.174;11.566;2023-04-29T12:16:14;95502.84;;;20.51;46.44
25420;BME280;13354;48.174;11.566;2023-04-29T12:18:40;95502.63;;;20.63;47.19
25420;BME280;13354;48.174;11.566;2023-04-29T12:21:05;95505.13;;;20.74;47.14
25420;BME280;13354;48.174;11.566;2023-04-29T12:23:31;95512.88;;;20.66;46.96
25420;BME280;13354;48.174;11.566;2023-04-29T12:25:57;95510.19;;;20.34;47.20
25420;BME280;13354;48.174;11.566;2023-04-29T12:28:23;95499.94;;;20.25;48.43
25420;BME280;13354;48.174;11.566;2023-04-29T12:30:49;95515.22;;;20.25;48.97
25420;BME280;13354;48.174;11.566;2023-04-29T12:33:21;95510.19;;;20.34;48.36
25420;BME280;13354;48.174;11.566;2023-04-29T12:35:48;95508.94;;;20.46;48.60
25420;BME280;13354;48.174;11.566;2023-04-29T12:38:23;95506.44;;;20.67;48.50
25420;BME280;13354;48.174;11.566;2023-04-29T12:40:51;95510.50;;;20.74;48.34
25420;BME280;13354;48.174;11.566;2023-04-29T12:43:17;95508.97;;;20.89;47.12
25420;BME280;13354;48.174;11.566;2023-04-29T12:45:42;95506.72;;;20.70;46.18
25420;BME280;13354;48.174;11.566;2023-04-29T12:48:08;95514.09;;;20.90;45.82
25420;BME280;13354;48.174;11.566;2023-04-29T12:50:36;95506.31;;;20.94;45.93
25420;BME280;13354;48.174;11.566;2023-04-29T12:53:02;95517.69;;;21.11;45.83
25420;BME280;13354;48.174;11.566;2023-04-29T12:55:28;95506.72;;;21.28;45.84
25420;BME280;13354;48.174;11.566;2023-04-29T12:57:55;95518.56;;;21.27;45.28
25420;BME280;13354;48.174;11.566;2023-04-29T13:00:20;95515.16;;;21.42;45.43
25420;BME280;13354;48.174;11.566;2023-04-29T13:02:46;95513.22;;;21.32;45.19
25420;BME280;13354;48.174;11.566;2023-04-29T13:05:11;95520.63;;;21.10;44.77
25420;BME280;13354;48.174;11.566;2023-04-29T13:07:37;95510.25;;;21.29;45.36